createdAt,value
2023-12-11T16:11:28.182Z,44.20
2023-12-11T16:12:28.207Z,52.43
2023-12-11T16:13:28.223Z,43.69
2023-12-11T16:14:28.227Z,42.02
2023-12-11T16:15:28.220Z,43.15
2023-12-11T16:16:28.382Z,41.66
2023-12-11T16:17:28.386Z,43.30
2023-12-11T16:18:28.311Z,41.56
2023-12-11T16:19:28.328Z,41.73
2023-12-11T16:20:28.230Z,41.42
2023-12-11T16:21:28.209Z,41.12
2023-12-11T16:22:28.309Z,40.96
2023-12-11T16:23:28.224Z,40.90
2023-12-11T16:24:28.212Z,40.82
2023-12-11T16:25:28.407Z,40.72
2023-12-11T16:26:28.205Z,40.56
2023-12-11T16:27:28.542Z,40.53
2023-12-11T16:28:28.290Z,40.53
2023-12-11T16:29:28.203Z,40.46
2023-12-11T16:30:28.230Z,40.46
2023-12-11T16:31:28.328Z,40.36
2023-12-11T16:32:28.467Z,40.35
2023-12-11T16:33:28.255Z,40.35
2023-12-11T16:34:28.372Z,40.28
2023-12-11T16:35:28.223Z,40.32
2023-12-11T16:36:28.249Z,40.23
2023-12-11T16:37:28.318Z,40.20
2023-12-11T16:38:28.270Z,40.20
2023-12-11T16:39:28.204Z,40.14
2023-12-11T16:40:28.317Z,40.14
2023-12-11T16:41:28.319Z,40.12
2023-12-11T16:42:28.480Z,40.09
2023-12-11T16:43:28.315Z,40.11
2023-12-11T16:44:28.232Z,40.07
2023-12-11T16:45:28.250Z,40.02
2023-12-11T16:46:28.292Z,40.03
2023-12-11T16:47:28.256Z,40.03
2023-12-11T16:48:28.286Z,40.00
2023-12-11T16:49:28.446Z,40.04
2023-12-11T16:50:28.368Z,40.00
2023-12-11T16:51:28.257Z,39.94
2023-12-11T16:52:28.476Z,39.91
2023-12-11T16:53:28.238Z,39.92
2023-12-11T16:54:28.235Z,39.87
2023-12-11T16:55:28.307Z,39.83
2023-12-11T16:56:28.230Z,39.89
2023-12-11T16:57:30.070Z,39.81
2023-12-11T16:58:28.281Z,39.85
2023-12-11T16:59:28.274Z,39.79
2023-12-11T17:00:28.249Z,39.82
2023-12-11T17:01:28.353Z,39.78
2023-12-11T17:02:28.250Z,39.78
2023-12-11T17:03:28.309Z,39.74
2023-12-11T17:04:28.454Z,39.76
2023-12-11T17:05:28.424Z,39.75
2023-12-11T17:06:28.461Z,39.75
2023-12-11T17:07:28.538Z,39.63
2023-12-11T17:08:28.576Z,39.71
2023-12-11T17:09:28.609Z,39.68
2023-12-11T17:10:28.936Z,39.60
2023-12-11T17:11:28.743Z,39.67
2023-12-11T17:12:29.064Z,39.60
2023-12-11T17:13:28.934Z,39.60
2023-12-11T17:14:28.901Z,39.63
2023-12-11T17:15:28.978Z,39.60
2023-12-11T17:16:29.065Z,39.60
2023-12-11T17:17:29.324Z,39.59
2023-12-11T17:18:29.254Z,39.53
2023-12-11T17:19:29.225Z,39.52
2023-12-11T17:20:29.232Z,39.50
2023-12-11T17:21:33.917Z,39.50
2023-12-11T17:22:30.352Z,39.45
2023-12-11T17:23:29.304Z,39.43
2023-12-11T17:24:29.301Z,39.45
2023-12-11T17:25:29.432Z,39.43
2023-12-11T17:26:29.327Z,39.38
2023-12-11T17:27:29.597Z,39.34
2023-12-11T17:28:29.361Z,39.36
2023-12-11T17:29:29.316Z,39.37
2023-12-11T17:30:29.346Z,39.35
2023-12-11T17:31:29.424Z,39.29
2023-12-11T17:32:29.672Z,39.27
2023-12-11T17:33:29.558Z,39.32
2023-12-11T17:34:29.700Z,39.28
2023-12-11T17:35:29.677Z,39.26
2023-12-11T17:36:29.703Z,39.21
2023-12-11T17:37:29.813Z,39.20
2023-12-11T17:38:29.818Z,39.20
2023-12-11T17:39:29.914Z,39.20
2023-12-11T17:40:30.094Z,39.23
2023-12-11T17:41:30.024Z,39.21
2023-12-11T17:42:30.220Z,39.16
2023-12-11T17:43:30.185Z,39.17
2023-12-11T17:44:30.197Z,39.14
2023-12-11T17:45:30.258Z,39.12
2023-12-11T17:46:30.377Z,39.20
2023-12-11T17:47:30.434Z,39.13
2023-12-11T17:48:30.574Z,39.08
2023-12-11T17:49:30.624Z,39.09
2023-12-11T17:50:30.584Z,39.09
2023-12-11T17:51:31.327Z,39.09
2023-12-11T17:52:31.067Z,39.04
2023-12-11T17:53:30.786Z,39.04
2023-12-11T17:54:30.833Z,38.99
2023-12-11T17:55:30.901Z,38.99
2023-12-11T17:56:30.935Z,39.00
2023-12-11T17:57:31.424Z,39.00
2023-12-11T17:58:31.117Z,38.99
2023-12-11T17:59:31.119Z,38.93
2023-12-11T18:00:31.285Z,38.94
2023-12-11T18:01:31.308Z,38.92
2023-12-11T18:02:31.295Z,38.90
2023-12-11T18:03:31.374Z,38.89
2023-12-11T18:04:31.480Z,38.84
2023-12-11T18:05:31.483Z,38.90
2023-12-11T18:06:31.600Z,38.82
2023-12-11T18:07:31.796Z,38.75
2023-12-11T18:08:31.658Z,38.73
2023-12-11T18:09:31.695Z,38.73
2023-12-11T18:10:34.401Z,38.76
2023-12-11T18:11:31.727Z,38.67
2023-12-11T18:12:31.745Z,38.68
2023-12-11T18:13:31.791Z,38.69
2023-12-11T18:14:31.746Z,38.69
2023-12-11T18:15:31.774Z,38.56
2023-12-11T18:16:31.818Z,38.71
2023-12-11T18:17:31.955Z,38.62
2023-12-11T18:18:31.852Z,38.63
2023-12-11T18:19:31.880Z,38.55
2023-12-11T18:20:31.782Z,38.55
2023-12-11T18:21:31.744Z,38.58
2023-12-11T18:22:31.776Z,38.52
2023-12-11T18:23:31.773Z,38.48
2023-12-11T18:24:31.761Z,38.52
2023-12-11T18:25:31.814Z,38.52
2023-12-11T18:26:31.767Z,38.53
2023-12-11T18:27:31.939Z,38.47
2023-12-11T18:28:31.864Z,38.47
2023-12-11T18:29:31.796Z,38.48
2023-12-11T18:30:31.778Z,38.41
2023-12-11T18:31:31.802Z,38.42
2023-12-11T18:32:32.011Z,38.38
2023-12-11T18:33:31.887Z,38.39
2023-12-11T18:34:39.931Z,38.42
2023-12-11T18:35:32.932Z,38.35
2023-12-11T18:36:31.809Z,38.40
2023-12-11T18:37:32.060Z,38.37
2023-12-11T18:38:31.900Z,38.30
2023-12-11T18:39:31.802Z,38.28
2023-12-11T18:40:31.852Z,38.32
2023-12-11T18:41:31.775Z,38.29
2023-12-11T18:42:31.848Z,38.15
2023-12-11T18:43:31.865Z,38.27
2023-12-11T18:44:31.916Z,38.20
2023-12-11T18:45:32.081Z,38.27
2023-12-11T18:46:32.066Z,38.25
2023-12-11T18:47:32.412Z,38.19
2023-12-11T18:48:32.232Z,38.15
2023-12-11T18:49:32.349Z,38.17
2023-12-11T18:50:32.261Z,38.21
2023-12-11T18:51:32.307Z,38.24
2023-12-11T18:52:32.390Z,38.13
2023-12-11T18:53:32.446Z,38.15
2023-12-11T18:54:32.538Z,38.10
2023-12-11T18:55:32.773Z,38.20
2023-12-11T18:56:32.622Z,38.15
2023-12-11T18:57:32.900Z,38.05
2023-12-11T18:58:32.812Z,38.11
2023-12-11T18:59:32.837Z,38.10
2023-12-11T19:00:32.964Z,38.05
2023-12-11T19:01:33.148Z,38.04
2023-12-11T19:02:33.335Z,38.06
2023-12-11T19:03:33.130Z,38.08
2023-12-11T19:04:33.252Z,38.05
2023-12-11T19:05:33.228Z,38.03
2023-12-11T19:06:33.225Z,38.00
2023-12-11T19:07:33.812Z,38.07
2023-12-11T19:08:33.482Z,38.00
2023-12-11T19:09:33.423Z,37.93
2023-12-11T19:10:33.534Z,38.01
2023-12-11T19:11:33.523Z,37.96
2023-12-11T19:12:33.565Z,37.95
2023-12-11T19:13:33.637Z,37.93
2023-12-11T19:14:33.631Z,37.91
2023-12-11T19:15:33.687Z,37.93
2023-12-11T19:16:33.721Z,37.86
2023-12-11T19:17:34.160Z,37.90
2023-12-11T19:18:33.863Z,37.86
2023-12-11T19:19:33.949Z,37.83
2023-12-11T19:20:33.883Z,37.84
2023-12-11T19:21:33.906Z,37.88
2023-12-11T19:22:33.989Z,37.87
2023-12-11T19:23:33.985Z,37.84
2023-12-11T19:24:34.039Z,37.80
2023-12-11T19:25:34.106Z,37.79
2023-12-11T19:26:34.092Z,37.78
2023-12-11T19:27:34.185Z,37.78
2023-12-11T19:28:34.183Z,37.77
2023-12-11T19:29:34.180Z,37.76
2023-12-11T19:30:34.276Z,37.80
2023-12-11T19:31:34.380Z,37.73
2023-12-11T19:32:34.364Z,37.77
2023-12-11T19:33:34.445Z,37.75
2023-12-11T19:34:34.477Z,37.64
2023-12-11T19:35:34.420Z,37.72
2023-12-11T19:36:34.429Z,37.69
2023-12-11T19:37:34.915Z,37.74
2023-12-11T19:38:34.503Z,37.75
2023-12-11T19:39:34.495Z,37.72
2023-12-11T19:40:34.582Z,37.66
2023-12-11T19:41:34.557Z,37.66
2023-12-11T19:42:34.580Z,37.68
2023-12-11T19:43:34.601Z,37.70
2023-12-11T19:44:34.606Z,37.64
2023-12-11T19:45:34.619Z,37.63
2023-12-11T19:46:34.621Z,37.65
2023-12-11T19:47:34.947Z,37.63
2023-12-11T19:48:34.733Z,37.64
2023-12-11T19:49:34.661Z,37.62
2023-12-11T19:50:34.665Z,37.59
2023-12-11T19:51:34.647Z,37.66
2023-12-11T19:52:34.741Z,37.55
2023-12-11T19:53:34.704Z,37.60
2023-12-11T19:54:34.690Z,37.56
2023-12-11T19:55:34.783Z,37.57
2023-12-11T19:56:34.739Z,37.54
2023-12-11T19:57:34.711Z,37.52
2023-12-11T19:58:34.788Z,37.56
2023-12-11T19:59:34.724Z,37.56
2023-12-11T20:00:34.775Z,37.49
2023-12-11T20:01:34.922Z,37.50
2023-12-11T20:02:34.765Z,37.53
2023-12-11T20:03:34.789Z,37.52
2023-12-11T20:04:34.840Z,37.53
2023-12-11T20:05:34.846Z,37.49
2023-12-11T20:06:34.819Z,37.50
2023-12-11T20:07:35.249Z,37.51
2023-12-11T20:08:34.846Z,37.49
2023-12-11T20:09:34.844Z,37.47
2023-12-11T20:10:34.904Z,37.47
2023-12-11T20:11:34.859Z,37.45
2023-12-11T20:12:34.976Z,37.41
2023-12-11T20:13:34.920Z,37.39
2023-12-11T20:14:34.907Z,37.46
2023-12-11T20:15:34.917Z,37.47
2023-12-11T20:16:34.942Z,37.41
2023-12-11T20:17:35.363Z,37.46
2023-12-11T20:18:34.969Z,37.42
2023-12-11T20:19:35.073Z,37.51
2023-12-11T20:20:34.967Z,37.39
2023-12-11T20:21:34.977Z,37.39
2023-12-11T20:22:35.049Z,37.33
2023-12-11T20:23:34.989Z,37.29
2023-12-11T20:24:35.025Z,37.38
2023-12-11T20:25:35.083Z,37.33
2023-12-11T20:26:35.035Z,37.34
2023-12-11T20:27:35.226Z,37.32
2023-12-11T20:28:35.035Z,37.36
2023-12-11T20:29:35.078Z,37.39
2023-12-11T20:30:35.101Z,37.28
2023-12-11T20:31:35.200Z,37.27
2023-12-11T20:32:35.187Z,37.32
2023-12-11T20:33:35.196Z,37.25
2023-12-11T20:34:35.902Z,37.30
2023-12-11T20:35:35.120Z,37.27
2023-12-11T20:36:35.124Z,37.27
2023-12-11T20:37:35.559Z,37.27
2023-12-11T20:38:35.132Z,37.25
2023-12-11T20:39:35.177Z,37.23
2023-12-11T20:40:35.176Z,37.24
2023-12-11T20:41:35.176Z,37.24
2023-12-11T20:42:35.175Z,37.22
2023-12-11T20:43:35.189Z,37.21
2023-12-11T20:44:35.171Z,37.24
2023-12-11T20:45:35.218Z,37.25
2023-12-11T20:46:35.378Z,37.20
2023-12-11T20:47:35.277Z,37.18
2023-12-11T20:48:35.286Z,37.24
2023-12-11T20:49:35.394Z,37.22
2023-12-11T20:50:35.265Z,37.19
2023-12-11T20:51:35.274Z,37.23
2023-12-11T20:52:35.320Z,37.23
2023-12-11T20:53:35.270Z,37.16
2023-12-11T20:54:35.296Z,37.15
2023-12-11T20:55:35.345Z,37.14
2023-12-11T20:56:35.309Z,37.15
2023-12-11T20:57:35.313Z,37.18
2023-12-11T20:58:35.347Z,37.15
2023-12-11T20:59:35.394Z,37.12
2023-12-11T21:00:35.397Z,37.12
2023-12-11T21:01:35.553Z,37.11
2023-12-11T21:02:35.416Z,37.06
2023-12-11T21:03:35.448Z,37.05
2023-12-11T21:04:35.519Z,37.08
2023-12-11T21:05:35.503Z,37.07
2023-12-11T21:06:35.519Z,37.07
2023-12-11T21:07:35.538Z,37.10
2023-12-11T21:08:39.349Z,37.10
2023-12-11T21:09:36.532Z,37.05
2023-12-11T21:10:35.539Z,37.10
2023-12-11T21:11:35.580Z,37.03
2023-12-11T21:12:35.559Z,36.98
2023-12-11T21:13:35.554Z,37.07
2023-12-11T21:14:35.531Z,37.06
2023-12-11T21:15:35.572Z,37.01
2023-12-11T21:16:35.801Z,37.02
2023-12-11T21:17:35.767Z,37.01
2023-12-11T21:18:35.657Z,37.01
2023-12-11T21:19:35.715Z,37.02
2023-12-11T21:20:35.556Z,36.98
2023-12-11T21:21:35.575Z,37.02
2023-12-11T21:22:35.571Z,36.98
2023-12-11T21:23:35.580Z,37.00
2023-12-11T21:24:35.565Z,36.97
2023-12-11T21:25:35.636Z,36.92
2023-12-11T21:26:35.678Z,36.95
2023-12-11T21:27:35.648Z,36.90
2023-12-11T21:28:35.557Z,36.92
2023-12-11T21:29:35.595Z,36.91
2023-12-11T21:30:35.585Z,36.92
2023-12-11T21:31:35.630Z,36.88
2023-12-11T21:32:35.610Z,36.90
2023-12-11T21:33:35.624Z,36.83
2023-12-11T21:34:35.649Z,36.88
2023-12-11T21:35:35.585Z,36.90
2023-12-11T21:36:35.632Z,36.87
2023-12-11T21:37:36.048Z,36.90
2023-12-11T21:38:35.572Z,36.84
2023-12-11T21:39:35.600Z,36.87
2023-12-11T21:40:35.638Z,36.84
2023-12-11T21:41:35.598Z,36.84
2023-12-11T21:42:35.598Z,36.85
2023-12-11T21:43:35.620Z,36.81
2023-12-11T21:44:35.669Z,36.81
2023-12-11T21:45:35.670Z,36.83
2023-12-11T21:46:35.725Z,36.86
2023-12-11T21:47:36.135Z,36.82
2023-12-11T21:48:35.811Z,36.78
2023-12-11T21:49:35.824Z,36.78
2023-12-11T21:50:35.794Z,36.78
2023-12-11T21:51:35.829Z,36.78
2023-12-11T21:52:35.955Z,36.73
2023-12-11T21:53:35.877Z,36.81
2023-12-11T21:54:35.881Z,36.74
2023-12-11T21:55:35.901Z,36.77
2023-12-11T21:56:35.923Z,36.72
2023-12-11T21:57:35.933Z,36.73
2023-12-11T21:58:35.971Z,36.74
2023-12-11T21:59:42.702Z,36.77
2023-12-11T22:00:37.007Z,36.74
2023-12-11T22:01:36.093Z,36.73
2023-12-11T22:02:36.036Z,36.70
2023-12-11T22:03:36.037Z,36.71
2023-12-11T22:04:35.994Z,36.69
2023-12-11T22:05:36.004Z,36.73
2023-12-11T22:06:35.997Z,36.71
2023-12-11T22:07:36.515Z,36.66
2023-12-11T22:08:35.975Z,36.71
2023-12-11T22:09:35.993Z,36.65
2023-12-11T22:10:35.989Z,36.68
2023-12-11T22:11:35.996Z,36.68
2023-12-11T22:12:36.010Z,36.65
2023-12-11T22:13:36.026Z,36.62
2023-12-11T22:14:36.016Z,36.54
2023-12-11T22:15:36.010Z,36.59
2023-12-11T22:16:39.419Z,36.64
2023-12-11T22:17:36.027Z,36.62
2023-12-11T22:18:36.055Z,36.63
2023-12-11T22:19:36.057Z,36.62
2023-12-11T22:20:36.012Z,36.60
2023-12-11T22:21:36.012Z,36.60
2023-12-11T22:22:35.999Z,36.59
2023-12-11T22:23:35.995Z,36.55
2023-12-11T22:24:36.017Z,36.56
2023-12-11T22:25:36.007Z,36.56
2023-12-11T22:26:36.048Z,36.54
2023-12-11T22:27:36.018Z,36.56
2023-12-11T22:28:36.045Z,36.57
2023-12-11T22:29:36.009Z,36.52
2023-12-11T22:30:36.028Z,36.50
2023-12-11T22:31:36.131Z,36.53
2023-12-11T22:32:36.057Z,36.54
2023-12-11T22:33:36.057Z,36.54
2023-12-11T22:34:36.160Z,36.46
2023-12-11T22:35:36.057Z,36.50
2023-12-11T22:36:36.037Z,36.45
2023-12-11T22:37:36.047Z,36.47
2023-12-11T22:38:36.078Z,36.50
2023-12-11T22:39:36.072Z,36.49
2023-12-11T22:40:36.122Z,36.46
2023-12-11T22:41:36.065Z,36.42
2023-12-11T22:42:36.054Z,36.45
2023-12-11T22:43:36.094Z,36.44
2023-12-11T22:44:36.062Z,36.45
2023-12-11T22:45:36.055Z,36.45
2023-12-11T22:46:36.115Z,36.43
2023-12-11T22:47:36.305Z,36.41
2023-12-11T22:48:36.093Z,36.42
2023-12-11T22:49:36.124Z,36.39
2023-12-11T22:50:36.067Z,36.41
2023-12-11T22:51:36.099Z,36.41
2023-12-11T22:52:36.112Z,36.43
2023-12-11T22:53:36.060Z,36.42
2023-12-11T22:54:36.079Z,36.36
2023-12-11T22:55:36.109Z,36.39
2023-12-11T22:56:36.094Z,36.35
2023-12-11T22:57:36.075Z,36.35
2023-12-11T22:58:36.113Z,36.37
2023-12-11T22:59:36.081Z,36.31
2023-12-11T23:00:36.138Z,36.36
2023-12-11T23:01:36.205Z,36.33
2023-12-11T23:02:36.093Z,36.36
2023-12-11T23:03:36.100Z,36.35
2023-12-11T23:04:36.166Z,36.37
2023-12-11T23:05:36.187Z,36.31
2023-12-11T23:06:36.113Z,36.31
2023-12-11T23:07:36.618Z,36.33
2023-12-11T23:08:36.147Z,36.27
2023-12-11T23:09:36.131Z,36.29
2023-12-11T23:10:36.252Z,36.30
2023-12-11T23:11:36.118Z,36.29
2023-12-11T23:12:36.104Z,36.27
2023-12-11T23:13:36.183Z,36.27
2023-12-11T23:14:36.113Z,36.25
2023-12-11T23:15:36.119Z,36.23
2023-12-11T23:16:36.164Z,36.26
2023-12-11T23:17:36.680Z,36.26
2023-12-11T23:18:36.205Z,36.26
2023-12-11T23:19:36.192Z,36.22
2023-12-11T23:20:36.152Z,36.21
2023-12-11T23:21:36.138Z,36.21
2023-12-11T23:22:36.150Z,36.23
2023-12-11T23:23:36.120Z,36.21
2023-12-11T23:24:36.155Z,36.17
2023-12-11T23:25:37.198Z,36.21
2023-12-11T23:26:36.139Z,36.19
2023-12-11T23:27:36.139Z,36.20
2023-12-11T23:28:36.186Z,36.20
2023-12-11T23:29:36.147Z,36.18
2023-12-11T23:30:36.153Z,36.16
2023-12-11T23:31:36.203Z,36.17
2023-12-11T23:32:36.230Z,36.15
2023-12-11T23:33:36.212Z,36.16
2023-12-11T23:34:36.184Z,36.11
2023-12-11T23:35:36.134Z,36.13
2023-12-11T23:36:37.203Z,36.15
2023-12-11T23:37:36.479Z,36.17
2023-12-11T23:38:36.168Z,36.12
2023-12-11T23:39:36.166Z,36.12
2023-12-11T23:40:36.193Z,36.11
2023-12-11T23:41:36.194Z,36.06
2023-12-11T23:42:36.303Z,36.13
2023-12-11T23:43:36.210Z,36.11
2023-12-11T23:44:36.171Z,36.09
2023-12-11T23:45:36.190Z,36.12
2023-12-11T23:46:36.343Z,36.11
2023-12-11T23:47:36.621Z,36.07
2023-12-11T23:48:36.247Z,36.06
2023-12-11T23:49:36.272Z,36.03
2023-12-11T23:50:36.209Z,36.07
2023-12-11T23:51:36.183Z,36.05
2023-12-11T23:52:36.290Z,36.08
2023-12-11T23:53:36.198Z,36.05
2023-12-11T23:54:36.178Z,36.05
2023-12-11T23:55:36.234Z,36.04
2023-12-11T23:56:36.942Z,36.07
2023-12-11T23:57:36.177Z,36.01
2023-12-11T23:58:36.230Z,36.02
2023-12-11T23:59:36.188Z,36.03
